Time;durP1;ratioP1;P1;durP2;ratioP2;P2;SDS_P1;SDS_P2;PMS_P1;PMS_P2;Temp;Humidity;BMP_temperature;BMP_pressure;BME280_temperature;BME280_humidity;BME280_pressure;Samples;Min_cycle;Max_cycle;Signal;HPM_P1;HPM_P2
2021/01/17 00:02:17;;;;;;;8.52;7.60;;;;;;;;;;5090871;28;20401;-67
2021/01/17 00:04:43;;;;;;;8.50;7.10;;;;;;;;;;5091092;28;20040;-68
2021/01/17 00:07:09;;;;;;;8.57;7.28;;;;;;;;;;5091808;28;20079;-68
2021/01/17 00:09:35;;;;;;;8.65;7.82;;;;;;;;;;5090707;28;20581;-67
2021/01/17 00:12:04;;;;;;;9.18;8.00;;;;;;;;;;5091664;28;20202;-67
2021/01/17 00:14:31;;;;;;;8.90;7.70;;;;;;;;;;5090128;28;20509;-67
2021/01/17 00:16:57;;;;;;;9.57;6.95;;;;;;;;;;5090560;28;20056;-67
2021/01/17 00:19:24;;;;;;;10.25;7.38;;;;;;;;;;5089969;28;20035;-67
2021/01/17 00:21:50;;;;;;;7.22;6.47;;;;;;;;;;5091264;28;20024;-68
2021/01/17 00:24:16;;;;;;;8.60;7.25;;;;;;;;;;5090232;28;20498;-68
2021/01/17 00:26:42;;;;;;;7.15;6.25;;;;;;;;;;5090508;28;20129;-68
2021/01/17 00:29:08;;;;;;;7.90;7.05;;;;;;;;;;5091516;28;20024;-68
2021/01/17 00:31:35;;;;;;;6.97;5.72;;;;;;;;;;5090382;28;20032;-68
2021/01/17 00:34:01;;;;;;;8.98;7.18;;;;;;;;;;5090470;28;20051;-68
2021/01/17 00:36:27;;;;;;;8.30;7.55;;;;;;;;;;5085622;28;20066;-68
2021/01/17 00:38:53;;;;;;;7.95;7.15;;;;;;;;;;5071207;28;20048;-68
2021/01/17 00:41:19;;;;;;;7.20;6.45;;;;;;;;;;5070127;28;20029;-68
2021/01/17 00:43:46;;;;;;;7.13;6.30;;;;;;;;;;5070252;28;20068;-68
2021/01/17 00:46:12;;;;;;;10.68;7.85;;;;;;;;;;5070282;28;20106;-68
2021/01/17 00:48:39;;;;;;;11.02;7.93;;;;;;;;;;5069658;28;20029;-68
2021/01/17 00:51:05;;;;;;;8.80;6.65;;;;;;;;;;5070617;28;20510;-68
2021/01/17 00:53:31;;;;;;;5.93;5.32;;;;;;;;;;5069949;28;20094;-68
2021/01/17 00:55:57;;;;;;;7.97;7.15;;;;;;;;;;5069659;28;20020;-68
2021/01/17 00:58:23;;;;;;;8.77;6.30;;;;;;;;;;5069530;28;20568;-68
2021/01/17 01:00:49;;;;;;;10.32;7.68;;;;;;;;;;5070117;28;20043;-68
2021/01/17 01:03:15;;;;;;;9.93;8.05;;;;;;;;;;5070005;28;20032;-67
2021/01/17 01:05:42;;;;;;;10.23;8.32;;;;;;;;;;5068964;28;20213;-68
2021/01/17 01:08:08;;;;;;;10.15;7.68;;;;;;;;;;5069395;28;20024;-67
2021/01/17 01:10:34;;;;;;;7.53;6.38;;;;;;;;;;5069696;28;20144;-68
2021/01/17 01:13:00;;;;;;;8.95;6.68;;;;;;;;;;5070499;28;20036;-68
2021/01/17 01:15:26;;;;;;;7.78;6.97;;;;;;;;;;5069620;28;20029;-68
2021/01/17 01:17:52;;;;;;;7.80;6.50;;;;;;;;;;5069774;28;20071;-67
2021/01/17 01:20:18;;;;;;;6.00;5.15;;;;;;;;;;5070031;28;20477;-66
2021/01/17 01:22:44;;;;;;;8.18;6.40;;;;;;;;;;5070123;28;20107;-67
2021/01/17 01:25:10;;;;;;;7.05;6.35;;;;;;;;;;5069870;28;20032;-66
2021/01/17 01:27:37;;;;;;;9.13;7.07;;;;;;;;;;5069457;28;20363;-67
2021/01/17 01:30:04;;;;;;;6.38;5.45;;;;;;;;;;5070071;28;20025;-66
2021/01/17 01:32:30;;;;;;;5.60;4.68;;;;;;;;;;5069214;28;20425;-66
2021/01/17 01:34:56;;;;;;;6.05;5.30;;;;;;;;;;5069257;28;20035;-66
2021/01/17 01:37:23;;;;;;;6.22;5.53;;;;;;;;;;5080636;28;20027;-66
2021/01/17 01:39:49;;;;;;;6.50;5.38;;;;;;;;;;5089674;28;20112;-66
2021/01/17 01:42:15;;;;;;;6.10;5.50;;;;;;;;;;5089517;28;20581;-65
2021/01/17 01:44:41;;;;;;;6.63;4.78;;;;;;;;;;5088798;28;20043;-67
2021/01/17 01:47:14;;;;;;;6.65;5.82;;;;;;;;;;5090040;28;20054;-66
2021/01/17 01:49:41;;;;;;;5.30;4.80;;;;;;;;;;5089718;28;20051;-67
2021/01/17 01:52:07;;;;;;;4.25;3.95;;;;;;;;;;5089974;28;20028;-66
2021/01/17 01:54:33;;;;;;;5.57;4.88;;;;;;;;;;5088788;28;20056;-66
2021/01/17 01:57:00;;;;;;;6.40;5.70;;;;;;;;;;5090012;28;20069;-66
2021/01/17 01:59:26;;;;;;;5.50;5.00;;;;;;;;;;5089391;28;20401;-67
2021/01/17 02:01:54;;;;;;;8.00;4.90;;;;;;;;;;5089533;28;20032;-67
2021/01/17 02:04:20;;;;;;;5.45;4.95;;;;;;;;;;5088663;28;20466;-69
2021/01/17 02:06:56;;;;;;;6.60;5.25;;;;;;;;;;5089396;28;20166;-67
2021/01/17 02:09:23;;;;;;;5.78;4.72;;;;;;;;;;5089033;28;20081;-68
2021/01/17 02:11:49;;;;;;;4.70;4.28;;;;;;;;;;5089434;28;20028;-68
2021/01/17 02:14:33;;;;;;;6.90;4.57;;;;;;;;;;5088857;28;20036;-67
2021/01/17 02:17:00;;;;;;;4.63;4.13;;;;;;;;;;5088867;28;20048;-68
2021/01/17 02:19:30;;;;;;;6.78;5.18;;;;;;;;;;5090121;28;20039;-68
2021/01/17 02:21:59;;;;;;;4.70;3.53;;;;;;;;;;5093868;28;20028;-68
2021/01/17 02:24:34;;;;;;;5.10;4.28;;;;;;;;;;5093015;28;20032;-68
2021/01/17 02:27:01;;;;;;;4.82;3.95;;;;;;;;;;5093059;28;20055;-68
2021/01/17 02:29:28;;;;;;;5.30;4.63;;;;;;;;;;5092605;28;20077;-68
2021/01/17 02:31:59;;;;;;;5.93;3.95;;;;;;;;;;5093336;28;20608;-68
2021/01/17 02:34:26;;;;;;;4.10;3.72;;;;;;;;;;5092326;28;20529;-68
2021/01/17 02:36:58;;;;;;;3.97;3.17;;;;;;;;;;5085145;28;20020;-68
2021/01/17 02:39:48;;;;;;;5.43;4.07;;;;;;;;;;5072090;28;20035;-68
2021/01/17 02:42:15;;;;;;;4.82;3.97;;;;;;;;;;5072851;28;20077;-66
2021/01/17 02:44:42;;;;;;;3.63;3.22;;;;;;;;;;5072257;28;20468;-68
2021/01/17 02:47:08;;;;;;;4.30;3.50;;;;;;;;;;5072349;28;20037;-68
2021/01/17 02:49:34;;;;;;;4.65;3.47;;;;;;;;;;5071935;28;20033;-68
2021/01/17 02:52:02;;;;;;;5.25;4.18;;;;;;;;;;5072985;28;20104;-68
2021/01/17 02:54:31;;;;;;;3.88;3.25;;;;;;;;;;5071947;28;20032;-68
2021/01/17 02:57:02;;;;;;;2.90;2.63;;;;;;;;;;5072669;28;20035;-68
2021/01/17 02:59:33;;;;;;;3.15;2.85;;;;;;;;;;5071797;28;20059;-68
2021/01/17 03:02:00;;;;;;;3.40;2.72;;;;;;;;;;5072254;28;20402;-68
2021/01/17 03:04:41;;;;;;;2.25;2.10;;;;;;;;;;5071295;28;20077;-69
2021/01/17 03:07:10;;;;;;;3.90;3.50;;;;;;;;;;5072598;28;20028;-68
2021/01/17 03:09:36;;;;;;;3.97;2.58;;;;;;;;;;5071291;28;20028;-68
2021/01/17 03:12:03;;;;;;;4.00;2.53;;;;;;;;;;5071923;28;20036;-68
2021/01/17 03:14:31;;;;;;;3.22;2.92;;;;;;;;;;5071543;28;20165;-68
2021/01/17 03:16:57;;;;;;;2.50;2.13;;;;;;;;;;5072034;28;20045;-68
2021/01/17 03:19:23;;;;;;;4.20;2.83;;;;;;;;;;5071425;28;20565;-68
2021/01/17 03:21:49;;;;;;;3.85;2.42;;;;;;;;;;5072429;28;20055;-68
2021/01/17 03:24:16;;;;;;;2.10;1.90;;;;;;;;;;5071807;28;20036;-67
2021/01/17 03:26:42;;;;;;;3.10;2.50;;;;;;;;;;5053521;28;20462;-68
2021/01/17 03:29:08;;;;;;;2.83;2.55;;;;;;;;;;5071794;28;20438;-68
2021/01/17 03:31:34;;;;;;;3.25;2.08;;;;;;;;;;5070243;28;20518;-68
2021/01/17 03:34:00;;;;;;;2.80;2.17;;;;;;;;;;5071923;28;20116;-68
2021/01/17 03:36:26;;;;;;;3.80;2.53;;;;;;;;;;5074610;28;20089;-68
2021/01/17 03:38:52;;;;;;;3.30;2.30;;;;;;;;;;5091838;28;20119;-68
2021/01/17 03:41:18;;;;;;;3.35;2.78;;;;;;;;;;5091813;28;20029;-67
2021/01/17 03:43:44;;;;;;;2.38;2.17;;;;;;;;;;5092662;28;20051;-68
2021/01/17 03:46:10;;;;;;;2.72;2.30;;;;;;;;;;5091917;28;20036;-68
2021/01/17 03:48:36;;;;;;;3.70;2.75;;;;;;;;;;5091292;28;20070;-68
2021/01/17 03:51:03;;;;;;;2.40;2.20;;;;;;;;;;5091474;28;20032;-68
2021/01/17 03:53:29;;;;;;;1.98;1.75;;;;;;;;;;5090707;28;20130;-68
2021/01/17 03:55:55;;;;;;;2.28;1.95;;;;;;;;;;5091401;28;20205;-68
2021/01/17 03:58:21;;;;;;;2.42;2.22;;;;;;;;;;5091211;28;20075;-68
2021/01/17 04:00:47;;;;;;;2.35;1.98;;;;;;;;;;5091536;28;20055;-68
2021/01/17 04:03:14;;;;;;;2.60;2.13;;;;;;;;;;5091675;28;20398;-68
2021/01/17 04:05:40;;;;;;;2.22;2.05;;;;;;;;;;5090569;28;20032;-68
2021/01/17 04:08:06;;;;;;;1.85;1.70;;;;;;;;;;5091708;28;20036;-68
2021/01/17 04:10:32;;;;;;;1.95;1.60;;;;;;;;;;5090780;28;20111;-68
2021/01/17 04:12:58;;;;;;;2.60;2.17;;;;;;;;;;5091571;28;20035;-68
2021/01/17 04:15:24;;;;;;;2.92;2.28;;;;;;;;;;5090183;28;20444;-67
2021/01/17 04:17:50;;;;;;;2.47;1.92;;;;;;;;;;5091144;28;20052;-67
2021/01/17 04:20:16;;;;;;;2.58;2.38;;;;;;;;;;5091558;28;20059;-68
2021/01/17 04:22:42;;;;;;;2.35;1.67;;;;;;;;;;5090929;28;20082;-68
2021/01/17 04:25:09;;;;;;;2.13;1.67;;;;;;;;;;5091022;28;20518;-68
2021/01/17 04:27:35;;;;;;;2.55;2.15;;;;;;;;;;5090430;28;20419;-68
2021/01/17 04:30:01;;;;;;;2.10;1.83;;;;;;;;;;5091461;28;20032;-68
2021/01/17 04:32:27;;;;;;;1.85;1.52;;;;;;;;;;5089684;28;20463;-68
2021/01/17 04:34:53;;;;;;;3.83;2.28;;;;;;;;;;5090058;28;20024;-68
2021/01/17 04:37:23;;;;;;;1.73;1.52;;;;;;;;;;5078624;28;20025;-68
2021/01/17 04:39:49;;;;;;;1.67;1.50;;;;;;;;;;5070902;28;20024;-68
2021/01/17 04:42:21;;;;;;;1.98;1.45;;;;;;;;;;5069864;28;20028;-67
2021/01/17 04:44:55;;;;;;;2.13;1.92;;;;;;;;;;5070436;28;20074;-69
2021/01/17 04:47:22;;;;;;;1.30;1.20;;;;;;;;;;5069913;28;20116;-68
2021/01/17 04:49:52;;;;;;;1.50;1.40;;;;;;;;;;5070907;28;20060;-68
2021/01/17 04:52:21;;;;;;;1.40;1.30;;;;;;;;;;5070052;28;20037;-67
2021/01/17 04:54:47;;;;;;;3.20;1.48;;;;;;;;;;5070047;28;20439;-68
2021/01/17 04:57:20;;;;;;;2.92;1.55;;;;;;;;;;5070499;28;20399;-68
2021/01/17 04:59:46;;;;;;;2.30;1.55;;;;;;;;;;5070650;28;20052;-68
2021/01/17 05:02:12;;;;;;;3.50;1.67;;;;;;;;;;5070451;28;20407;-68
2021/01/17 05:04:44;;;;;;;1.40;1.30;;;;;;;;;;5068572;28;20032;-68
2021/01/17 05:07:31;;;;;;;1.40;1.30;;;;;;;;;;5070183;28;20036;-68
2021/01/17 05:10:05;;;;;;;1.63;1.52;;;;;;;;;;5070197;28;20479;-68
2021/01/17 05:12:36;;;;;;;0.88;0.88;;;;;;;;;;5068969;28;20173;-68
2021/01/17 05:15:04;;;;;;;1.90;1.27;;;;;;;;;;5051553;28;20406;-68
2021/01/17 05:17:37;;;;;;;1.52;1.42;;;;;;;;;;5068217;28;20216;-68
2021/01/17 05:20:03;;;;;;;0.80;0.80;;;;;;;;;;5070233;28;20047;-67
2021/01/17 05:22:31;;;;;;;1.27;1.17;;;;;;;;;;5069042;28;20028;-68
2021/01/17 05:24:58;;;;;;;1.38;1.00;;;;;;;;;;5068771;28;20024;-68
2021/01/17 05:27:24;;;;;;;2.10;1.27;;;;;;;;;;5068846;28;20040;-67
2021/01/17 05:29:50;;;;;;;1.98;1.10;;;;;;;;;;5069977;28;20028;-68
2021/01/17 05:32:16;;;;;;;1.30;1.05;;;;;;;;;;5069490;28;20107;-67
2021/01/17 05:34:42;;;;;;;0.98;0.88;;;;;;;;;;5068503;28;20078;-68
2021/01/17 05:37:10;;;;;;;2.03;1.35;;;;;;;;;;5079380;28;20028;-68
2021/01/17 05:39:55;;;;;;;1.40;1.30;;;;;;;;;;5089070;28;20040;-68
2021/01/17 05:42:21;;;;;;;1.55;0.93;;;;;;;;;;5089419;28;20085;-67
2021/01/17 05:44:48;;;;;;;1.73;1.10;;;;;;;;;;5089768;28;20067;-68
2021/01/17 05:47:14;;;;;;;2.00;1.45;;;;;;;;;;5089289;28;20028;-67
2021/01/17 05:49:40;;;;;;;1.50;1.23;;;;;;;;;;5089870;28;20036;-68
2021/01/17 05:52:11;;;;;;;1.30;1.20;;;;;;;;;;5089392;28;20435;-68
2021/01/17 05:54:37;;;;;;;1.88;1.77;;;;;;;;;;5088272;28;20092;-68
2021/01/17 05:57:10;;;;;;;1.92;1.75;;;;;;;;;;5089195;28;20073;-68
2021/01/17 05:59:37;;;;;;;2.38;1.23;;;;;;;;;;5088929;28;20032;-68
2021/01/17 06:02:03;;;;;;;1.60;1.50;;;;;;;;;;5089439;28;20039;-68
2021/01/17 06:04:30;;;;;;;1.20;1.10;;;;;;;;;;5088221;28;20043;-68
2021/01/17 06:06:56;;;;;;;1.42;1.33;;;;;;;;;;5088487;28;20032;-68
2021/01/17 06:09:23;;;;;;;1.20;1.10;;;;;;;;;;5088481;28;20032;-67
2021/01/17 06:11:58;;;;;;;2.33;1.73;;;;;;;;;;5089629;28;20035;-67
2021/01/17 06:14:25;;;;;;;1.38;1.13;;;;;;;;;;5088633;28;20031;-67
2021/01/17 06:16:57;;;;;;;1.58;1.27;;;;;;;;;;5088880;28;20052;-68
2021/01/17 06:19:30;;;;;;;1.92;1.50;;;;;;;;;;5088982;28;20032;-67
2021/01/17 06:21:57;;;;;;;3.00;1.70;;;;;;;;;;5088915;28;20054;-68
2021/01/17 06:24:32;;;;;;;1.55;1.10;;;;;;;;;;5088632;28;20047;-67
2021/01/17 06:27:00;;;;;;;1.20;1.10;;;;;;;;;;5089109;28;20032;-67
2021/01/17 06:29:36;;;;;;;1.50;1.08;;;;;;;;;;5088702;28;20024;-67
2021/01/17 06:32:12;;;;;;;2.03;1.48;;;;;;;;;;5089558;28;20039;-68
2021/01/17 06:34:43;;;;;;;1.70;1.60;;;;;;;;;;5088140;28;20060;-67
2021/01/17 06:37:13;;;;;;;1.42;1.33;;;;;;;;;;5079161;28;20028;-67
2021/01/17 06:39:44;;;;;;;1.77;1.67;;;;;;;;;;5068960;28;20028;-67
2021/01/17 06:42:11;;;;;;;1.58;1.48;;;;;;;;;;5069072;28;20526;-67
2021/01/17 06:44:37;;;;;;;1.30;1.00;;;;;;;;;;5068029;28;20032;-67
2021/01/17 06:47:03;;;;;;;1.33;1.00;;;;;;;;;;5068849;28;20062;-67
2021/01/17 06:49:30;;;;;;;1.10;1.00;;;;;;;;;;5067899;28;20097;-67
2021/01/17 06:51:57;;;;;;;1.75;1.00;;;;;;;;;;5068623;28;20078;-67
2021/01/17 06:54:24;;;;;;;1.42;1.00;;;;;;;;;;5068172;28;20028;-67
2021/01/17 06:56:51;;;;;;;1.38;1.30;;;;;;;;;;5068979;28;20025;-67
2021/01/17 06:59:35;;;;;;;2.38;1.75;;;;;;;;;;5068363;28;20478;-66
2021/01/17 07:02:16;;;;;;;1.63;1.53;;;;;;;;;;5068882;28;20029;-67
2021/01/17 07:04:54;;;;;;;1.30;1.20;;;;;;;;;;5068143;28;20336;-67
2021/01/17 07:07:39;;;;;;;1.42;1.10;;;;;;;;;;5072157;28;20036;-67
2021/01/17 07:10:06;;;;;;;1.58;1.23;;;;;;;;;;5072312;28;20414;-68
2021/01/17 07:12:52;;;;;;;1.20;1.10;;;;;;;;;;5071873;28;20487;-68
2021/01/17 07:15:24;;;;;;;1.85;1.70;;;;;;;;;;5071684;28;20479;-67
2021/01/17 07:17:50;;;;;;;1.63;1.40;;;;;;;;;;5071922;28;20052;-68
2021/01/17 07:20:16;;;;;;;1.80;1.70;;;;;;;;;;5071886;28;20069;-67
2021/01/17 07:22:43;;;;;;;2.22;1.00;;;;;;;;;;5071716;28;20024;-67
2021/01/17 07:25:09;;;;;;;1.20;1.10;;;;;;;;;;5071706;28;20073;-67
2021/01/17 07:27:52;;;;;;;2.28;1.92;;;;;;;;;;5071317;28;20122;-67
2021/01/17 07:30:32;;;;;;;1.58;1.27;;;;;;;;;;5071124;28;20025;-67
2021/01/17 07:33:01;;;;;;;1.58;1.48;;;;;;;;;;5071753;28;20360;-67
2021/01/17 07:35:27;;;;;;;4.03;1.92;;;;;;;;;;5071162;28;20028;-67
2021/01/17 07:37:56;;;;;;;3.65;1.75;;;;;;;;;;5087681;28;20060;-67
2021/01/17 07:41:05;;;;;;;2.13;1.67;;;;;;;;;;5091758;28;20056;-67
2021/01/17 07:43:12;;;;;;;2.20;2.00;;;;;;;;;;5083666;28;20204;-67
2021/01/17 07:45:39;;;;;;;1.92;1.40;;;;;;;;;;5091247;28;20040;-67
2021/01/17 07:48:10;;;;;;;1.52;1.42;;;;;;;;;;5092496;28;20047;-67
2021/01/17 07:50:43;;;;;;;1.35;1.15;;;;;;;;;;5091204;28;20036;-67
2021/01/17 07:53:18;;;;;;;1.42;1.23;;;;;;;;;;5092284;28;20032;-67
2021/01/17 07:55:45;;;;;;;1.42;1.33;;;;;;;;;;5091732;28;20028;-68
2021/01/17 07:58:11;;;;;;;1.52;1.42;;;;;;;;;;5091395;28;20368;-68
2021/01/17 08:00:38;;;;;;;1.27;1.17;;;;;;;;;;5090867;28;20533;-67
2021/01/17 08:03:05;;;;;;;2.25;2.00;;;;;;;;;;5091953;28;20089;-67
2021/01/17 08:05:51;;;;;;;2.05;1.42;;;;;;;;;;5090436;28;20024;-67
2021/01/17 08:08:36;;;;;;;1.55;1.08;;;;;;;;;;5091347;28;20028;-67
2021/01/17 08:11:02;;;;;;;1.85;1.73;;;;;;;;;;5090929;28;20032;-68
2021/01/17 08:13:32;;;;;;;1.85;1.75;;;;;;;;;;5090109;28;20083;-67
2021/01/17 08:16:11;;;;;;;3.03;2.28;;;;;;;;;;5091231;28;20225;-67
2021/01/17 08:18:40;;;;;;;1.30;1.20;;;;;;;;;;5089139;28;20090;-67
2021/01/17 08:21:22;;;;;;;1.50;1.27;;;;;;;;;;5091139;28;20542;-67
2021/01/17 08:24:14;;;;;;;1.33;1.23;;;;;;;;;;5091228;28;20447;-67
2021/01/17 08:26:58;;;;;;;1.55;1.45;;;;;;;;;;5090173;28;20050;-67
2021/01/17 08:29:24;;;;;;;2.28;2.08;;;;;;;;;;5090752;28;20040;-67
2021/01/17 08:31:50;;;;;;;3.13;2.22;;;;;;;;;;5090992;28;20024;-67
2021/01/17 08:34:17;;;;;;;1.85;1.55;;;;;;;;;;5090134;28;20098;-67
2021/01/17 08:36:44;;;;;;;2.20;1.38;;;;;;;;;;5084349;28;20543;-67
2021/01/17 08:39:11;;;;;;;1.85;1.45;;;;;;;;;;5069935;28;20036;-68
2021/01/17 08:41:39;;;;;;;1.77;1.67;;;;;;;;;;5070100;28;20086;-68
2021/01/17 08:44:07;;;;;;;1.48;1.38;;;;;;;;;;5070416;28;20030;-67
2021/01/17 08:46:34;;;;;;;1.90;1.80;;;;;;;;;;5069725;28;20120;-67
2021/01/17 08:49:00;;;;;;;2.28;1.90;;;;;;;;;;5052727;28;20369;-67
2021/01/17 08:51:26;;;;;;;2.35;2.15;;;;;;;;;;5069604;28;20097;-67
2021/01/17 08:53:52;;;;;;;2.28;2.08;;;;;;;;;;5069730;28;20032;-67
2021/01/17 08:56:19;;;;;;;2.63;2.33;;;;;;;;;;5069698;28;20028;-68
2021/01/17 08:58:49;;;;;;;2.25;2.00;;;;;;;;;;5069740;28;20351;-68
2021/01/17 09:01:16;;;;;;;2.33;2.00;;;;;;;;;;5068404;28;20052;-68
2021/01/17 09:03:42;;;;;;;2.88;2.20;;;;;;;;;;5069347;28;20032;-68
2021/01/17 09:06:08;;;;;;;2.17;2.03;;;;;;;;;;5069391;28;20059;-68
2021/01/17 09:08:35;;;;;;;1.77;1.67;;;;;;;;;;5068756;28;20380;-68
2021/01/17 09:11:01;;;;;;;3.75;2.97;;;;;;;;;;5069798;28;20028;-68
2021/01/17 09:13:28;;;;;;;3.90;3.00;;;;;;;;;;5068788;28;20507;-68
2021/01/17 09:15:58;;;;;;;1.80;1.70;;;;;;;;;;5069633;28;20028;-68
2021/01/17 09:18:25;;;;;;;3.03;2.63;;;;;;;;;;5068308;28;20040;-68
2021/01/17 09:20:55;;;;;;;3.03;2.22;;;;;;;;;;5069507;28;20112;-68
2021/01/17 09:23:21;;;;;;;3.00;2.28;;;;;;;;;;5068823;28;20398;-68
2021/01/17 09:25:48;;;;;;;3.05;2.45;;;;;;;;;;5068750;28;20036;-68
2021/01/17 09:28:15;;;;;;;3.72;2.38;;;;;;;;;;5068880;28;20025;-67
2021/01/17 09:30:50;;;;;;;3.60;2.60;;;;;;;;;;5068882;28;20086;-68
2021/01/17 09:33:17;;;;;;;3.88;2.78;;;;;;;;;;5069039;28;20111;-67
2021/01/17 09:35:44;;;;;;;3.22;2.92;;;;;;;;;;5068991;28;20089;-68
2021/01/17 09:38:18;;;;;;;3.50;3.20;;;;;;;;;;5087725;28;20085;-68
2021/01/17 09:40:45;;;;;;;2.72;2.53;;;;;;;;;;5090014;28;20056;-68
2021/01/17 09:43:11;;;;;;;3.22;2.75;;;;;;;;;;5089382;28;20107;-68
2021/01/17 09:45:38;;;;;;;2.75;2.55;;;;;;;;;;5088512;28;20050;-68
2021/01/17 09:48:04;;;;;;;2.90;2.70;;;;;;;;;;5089323;28;20024;-68
2021/01/17 09:50:35;;;;;;;2.88;2.63;;;;;;;;;;5089295;28;20131;-68
2021/01/17 09:53:05;;;;;;;4.32;3.85;;;;;;;;;;5089966;28;20069;-68
2021/01/17 09:55:31;;;;;;;3.35;3.05;;;;;;;;;;5088425;28;20062;-68
2021/01/17 09:58:00;;;;;;;3.63;3.33;;;;;;;;;;5089246;28;20024;-68
2021/01/17 10:00:26;;;;;;;4.82;3.72;;;;;;;;;;5089055;28;20371;-68
2021/01/17 10:02:53;;;;;;;2.97;2.78;;;;;;;;;;5089535;28;20125;-68
2021/01/17 10:05:29;;;;;;;5.57;3.30;;;;;;;;;;5088407;28;20033;-67
2021/01/17 10:08:02;;;;;;;3.55;3.25;;;;;;;;;;5089511;28;20031;-68
2021/01/17 10:10:28;;;;;;;3.60;3.30;;;;;;;;;;5088703;28;20051;-68
2021/01/17 10:12:54;;;;;;;4.53;3.50;;;;;;;;;;5090033;28;20039;-68
2021/01/17 10:15:20;;;;;;;4.25;3.85;;;;;;;;;;5089053;28;20084;-67
2021/01/17 10:17:50;;;;;;;3.50;3.20;;;;;;;;;;5088221;28;20055;-68
2021/01/17 10:20:42;;;;;;;4.25;3.88;;;;;;;;;;5089119;28;20055;-67
2021/01/17 10:23:09;;;;;;;3.53;3.22;;;;;;;;;;5084522;28;20040;-68
2021/01/17 10:25:36;;;;;;;3.60;3.35;;;;;;;;;;5088533;28;20054;-68
2021/01/17 10:28:06;;;;;;;6.05;4.47;;;;;;;;;;5089149;28;20028;-68
2021/01/17 10:30:33;;;;;;;3.60;3.10;;;;;;;;;;5088713;28;20475;-68
2021/01/17 10:33:02;;;;;;;4.60;3.53;;;;;;;;;;5088980;28;20058;-68
2021/01/17 10:35:33;;;;;;;4.80;3.90;;;;;;;;;;5088240;28;20028;-68
2021/01/17 10:37:59;;;;;;;4.00;3.65;;;;;;;;;;5072006;28;20029;-68
2021/01/17 10:40:26;;;;;;;5.32;4.10;;;;;;;;;;5068973;28;20533;-68
2021/01/17 10:42:53;;;;;;;4.80;4.20;;;;;;;;;;5072929;28;20025;-68
2021/01/17 10:45:20;;;;;;;4.50;4.00;;;;;;;;;;5071999;28;20094;-67
2021/01/17 10:47:46;;;;;;;3.67;3.15;;;;;;;;;;5072222;28;20135;-68
2021/01/17 10:50:20;;;;;;;4.05;3.38;;;;;;;;;;5072791;28;20036;-68
2021/01/17 10:52:59;;;;;;;3.35;3.10;;;;;;;;;;5072107;28;20031;-68
2021/01/17 10:55:28;;;;;;;4.75;3.83;;;;;;;;;;5071955;28;20032;-67
2021/01/17 10:57:55;;;;;;;3.58;3.25;;;;;;;;;;5072531;28;20051;-68
2021/01/17 11:00:22;;;;;;;3.13;2.83;;;;;;;;;;5071425;28;20029;-67
2021/01/17 11:02:59;;;;;;;2.60;2.40;;;;;;;;;;5072201;28;20445;-68
2021/01/17 11:05:26;;;;;;;4.03;3.47;;;;;;;;;;5071602;28;20070;-67
2021/01/17 11:07:52;;;;;;;3.15;2.85;;;;;;;;;;5072236;28;20147;-68
2021/01/17 11:10:18;;;;;;;3.72;3.42;;;;;;;;;;5071914;28;20514;-67
2021/01/17 11:12:44;;;;;;;3.00;2.72;;;;;;;;;;5072460;28;20021;-68
2021/01/17 11:15:17;;;;;;;3.05;2.75;;;;;;;;;;5071944;28;20056;-68
2021/01/17 11:17:44;;;;;;;3.40;3.20;;;;;;;;;;5072047;28;20072;-68
2021/01/17 11:20:12;;;;;;;3.63;3.20;;;;;;;;;;5072049;28;20040;-68
2021/01/17 11:22:38;;;;;;;3.30;3.00;;;;;;;;;;5071239;28;20129;-68
2021/01/17 11:25:05;;;;;;;3.00;2.72;;;;;;;;;;5071613;28;20043;-68
2021/01/17 11:27:35;;;;;;;3.80;3.50;;;;;;;;;;5070996;28;20541;-68
2021/01/17 11:30:02;;;;;;;5.43;4.30;;;;;;;;;;5072153;28;20092;-68
2021/01/17 11:32:34;;;;;;;3.83;3.22;;;;;;;;;;5071172;28;20493;-68
2021/01/17 11:35:00;;;;;;;3.20;2.90;;;;;;;;;;5071438;28;20058;-68
2021/01/17 11:37:34;;;;;;;4.57;3.67;;;;;;;;;;5083320;28;20375;-67
2021/01/17 11:40:07;;;;;;;4.28;3.95;;;;;;;;;;5092167;28;20145;-68
2021/01/17 11:42:33;;;;;;;4.32;3.88;;;;;;;;;;5091131;28;20864;-68
2021/01/17 11:45:01;;;;;;;3.13;2.83;;;;;;;;;;5091640;28;20404;-68
2021/01/17 11:47:27;;;;;;;3.28;2.97;;;;;;;;;;5091111;28;20437;-68
2021/01/17 11:49:53;;;;;;;3.00;2.63;;;;;;;;;;5091968;28;20028;-68
2021/01/17 11:52:19;;;;;;;2.80;2.60;;;;;;;;;;5090694;28;20024;-67
2021/01/17 11:54:45;;;;;;;3.05;2.80;;;;;;;;;;5091097;28;20028;-68
2021/01/17 11:57:11;;;;;;;3.28;2.97;;;;;;;;;;5092029;28;20039;-67
2021/01/17 11:59:38;;;;;;;2.92;2.72;;;;;;;;;;5091407;28;20028;-67
2021/01/17 12:02:17;;;;;;;4.40;3.22;;;;;;;;;;5091751;28;20077;-67
2021/01/17 12:04:45;;;;;;;3.97;3.45;;;;;;;;;;5090971;28;20024;-67
2021/01/17 12:07:12;;;;;;;3.50;3.20;;;;;;;;;;5091501;28;20084;-67
2021/01/17 12:09:38;;;;;;;3.78;3.47;;;;;;;;;;5091161;28;20466;-67
2021/01/17 12:12:14;;;;;;;4.05;3.53;;;;;;;;;;5091544;28;20028;-68
2021/01/17 12:14:40;;;;;;;3.90;3.08;;;;;;;;;;5090942;28;20024;-68
2021/01/17 12:17:06;;;;;;;3.10;2.80;;;;;;;;;;5091035;28;20594;-68
2021/01/17 12:19:34;;;;;;;2.60;2.40;;;;;;;;;;5090870;28;20076;-67
2021/01/17 12:22:01;;;;;;;3.22;2.92;;;;;;;;;;5091538;28;20454;-67
2021/01/17 12:24:27;;;;;;;2.58;2.38;;;;;;;;;;5089545;28;20027;-67
2021/01/17 12:26:54;;;;;;;2.72;2.50;;;;;;;;;;5090138;28;20044;-67
2021/01/17 12:29:20;;;;;;;3.08;2.28;;;;;;;;;;5089675;28;20469;-68
2021/01/17 12:31:47;;;;;;;4.68;3.63;;;;;;;;;;5090912;28;20193;-67
2021/01/17 12:34:13;;;;;;;3.33;3.03;;;;;;;;;;5090980;28;20027;-67
2021/01/17 12:36:42;;;;;;;3.63;3.33;;;;;;;;;;5084351;28;20028;-67
2021/01/17 12:39:09;;;;;;;5.10;4.00;;;;;;;;;;5071004;28;20028;-67
2021/01/17 12:41:36;;;;;;;3.47;3.17;;;;;;;;;;5070214;28;20036;-67
2021/01/17 12:44:03;;;;;;;3.28;3.08;;;;;;;;;;5070631;28;20032;-67
2021/01/17 12:46:29;;;;;;;3.17;2.95;;;;;;;;;;5069530;28;20123;-67
2021/01/17 12:48:56;;;;;;;3.65;3.22;;;;;;;;;;5070042;28;20466;-67
2021/01/17 12:51:22;;;;;;;4.30;3.90;;;;;;;;;;5069445;28;20029;-67
2021/01/17 12:53:49;;;;;;;3.65;3.15;;;;;;;;;;5070441;28;20442;-67
2021/01/17 12:56:16;;;;;;;4.82;4.38;;;;;;;;;;5069428;28;20031;-67
2021/01/17 12:58:42;;;;;;;3.67;3.30;;;;;;;;;;5069810;28;20041;-67
2021/01/17 13:01:08;;;;;;;3.15;2.90;;;;;;;;;;5070272;28;20201;-67
2021/01/17 13:03:35;;;;;;;3.33;2.90;;;;;;;;;;5069227;28;20035;-67
2021/01/17 13:06:06;;;;;;;4.18;3.80;;;;;;;;;;5069583;28;20514;-68
2021/01/17 13:08:33;;;;;;;3.83;3.25;;;;;;;;;;5069586;28;20078;-67
2021/01/17 13:10:59;;;;;;;4.78;4.13;;;;;;;;;;5069926;28;20103;-67
2021/01/17 13:13:25;;;;;;;5.25;4.75;;;;;;;;;;5069278;28;20032;-67
2021/01/17 13:15:55;;;;;;;3.88;3.58;;;;;;;;;;5069649;28;20146;-68
2021/01/17 13:18:22;;;;;;;4.18;3.72;;;;;;;;;;5068663;28;20047;-68
2021/01/17 13:20:48;;;;;;;4.40;3.83;;;;;;;;;;5069781;28;20071;-68
2021/01/17 13:23:14;;;;;;;5.85;3.83;;;;;;;;;;5069913;28;20032;-67
2021/01/17 13:25:42;;;;;;;3.58;3.15;;;;;;;;;;5069021;28;20036;-68
2021/01/17 13:28:08;;;;;;;4.43;4.03;;;;;;;;;;5069856;28;20045;-68
2021/01/17 13:30:35;;;;;;;5.30;4.80;;;;;;;;;;5069068;28;20098;-68
2021/01/17 13:33:04;;;;;;;4.72;4.32;;;;;;;;;;5069849;28;20032;-68
2021/01/17 13:35:30;;;;;;;4.45;4.03;;;;;;;;;;5068604;28;20029;-67
2021/01/17 13:37:57;;;;;;;4.53;4.13;;;;;;;;;;5085795;28;20077;-68
2021/01/17 13:40:23;;;;;;;5.55;5.10;;;;;;;;;;5089637;28;20036;-68
2021/01/17 13:42:49;;;;;;;4.97;3.83;;;;;;;;;;5089588;28;20032;-68
2021/01/17 13:45:15;;;;;;;3.47;3.15;;;;;;;;;;5089414;28;20103;-67
2021/01/17 13:47:42;;;;;;;6.97;4.93;;;;;;;;;;5089403;28;20062;-68
2021/01/17 13:50:09;;;;;;;7.07;5.05;;;;;;;;;;5090099;28;20032;-68
2021/01/17 13:52:35;;;;;;;4.10;3.70;;;;;;;;;;5088923;28;20035;-68
2021/01/17 13:55:01;;;;;;;3.88;3.58;;;;;;;;;;5089365;28;20032;-68
2021/01/17 13:57:27;;;;;;;3.80;3.50;;;;;;;;;;5088895;28;20149;-68
2021/01/17 13:59:54;;;;;;;4.32;3.35;;;;;;;;;;5089934;28;20367;-68
2021/01/17 14:02:20;;;;;;;4.53;4.22;;;;;;;;;;5088829;28;20100;-67
2021/01/17 14:04:46;;;;;;;3.67;3.30;;;;;;;;;;5089107;28;20028;-68
2021/01/17 14:07:13;;;;;;;5.10;3.97;;;;;;;;;;5089383;28;20383;-68
2021/01/17 14:09:39;;;;;;;4.15;3.55;;;;;;;;;;5088751;28;20036;-68
2021/01/17 14:12:07;;;;;;;3.67;3.38;;;;;;;;;;5089634;28;20032;-68
2021/01/17 14:14:33;;;;;;;3.67;3.22;;;;;;;;;;5088374;28;20028;-68
2021/01/17 14:16:59;;;;;;;3.90;3.25;;;;;;;;;;5092893;28;20360;-68
2021/01/17 14:19:25;;;;;;;2.95;2.65;;;;;;;;;;5092857;28;20027;-67
2021/01/17 14:21:51;;;;;;;3.88;3.20;;;;;;;;;;5093580;28;20028;-68
2021/01/17 14:24:17;;;;;;;3.95;3.65;;;;;;;;;;5092942;28;20023;-68
2021/01/17 14:26:43;;;;;;;2.75;2.55;;;;;;;;;;5093033;28;20406;-68
2021/01/17 14:29:11;;;;;;;3.65;3.38;;;;;;;;;;5093493;28;20043;-68
2021/01/17 14:31:41;;;;;;;4.03;3.70;;;;;;;;;;5092993;28;20748;-68
2021/01/17 14:34:08;;;;;;;4.53;3.78;;;;;;;;;;5093263;28;20028;-68
2021/01/17 14:36:35;;;;;;;3.42;2.78;;;;;;;;;;5087577;28;20495;-67
2021/01/17 14:39:02;;;;;;;3.17;2.88;;;;;;;;;;5073313;28;20032;-67
2021/01/17 14:41:28;;;;;;;2.72;2.53;;;;;;;;;;5072500;28;20441;-67
2021/01/17 14:43:54;;;;;;;3.70;2.92;;;;;;;;;;5072943;28;20078;-67
2021/01/17 14:46:20;;;;;;;3.00;2.67;;;;;;;;;;5071638;28;20043;-66
2021/01/17 14:48:46;;;;;;;2.33;2.13;;;;;;;;;;5072841;28;20071;-67
2021/01/17 14:51:18;;;;;;;2.58;2.38;;;;;;;;;;5072981;28;20124;-67